Time;durP1;ratioP1;P1;durP2;ratioP2;P2;SDS_P1;SDS_P2;PMS_P1;PMS_P2;Temp;Humidity;BMP_temperature;BMP_pressure;BME280_temperature;BME280_humidity;BME280_pressure;Samples;Min_cycle;Max_cycle;Signal;HPM_P1;HPM_P2
2022/12/25 00:02:29;;;;;;;16.73;10.50;;;7.00;1.00;;;;;;6293850;28;20572;-56
2022/12/25 00:05:32;;;;;;;22.57;11.20;;;7.00;1.00;;;;;;6299764;28;20229;-55
2022/12/25 00:08:36;;;;;;;20.90;10.90;;;6.90;1.00;;;;;;6301068;28;20270;-55
2022/12/25 00:11:39;;;;;;;19.30;11.17;;;7.00;1.00;;;;;;6278615;28;20694;-55
2022/12/25 00:14:42;;;;;;;19.70;10.83;;;6.70;1.00;;;;;;6281247;28;20303;-55
2022/12/25 00:17:47;;;;;;;21.37;11.53;;;6.70;1.00;;;;;;6281985;28;20256;-56
2022/12/25 00:21:00;;;;;;;23.70;11.50;;;6.70;1.00;;;;;;6278617;28;20264;-56
2022/12/25 00:24:04;;;;;;;15.77;10.27;;;6.70;1.00;;;;;;6275704;28;20237;-56
2022/12/25 00:27:07;;;;;;;21.27;11.37;;;6.70;1.00;;;;;;6271863;28;20240;-55
2022/12/25 00:30:10;;;;;;;24.33;11.43;;;6.60;1.00;;;;;;6282772;28;20244;-55
2022/12/25 00:33:15;;;;;;;21.20;11.40;;;6.50;1.00;;;;;;6293575;28;20237;-55
2022/12/25 00:36:19;;;;;;;20.97;12.03;;;6.80;1.00;;;;;;6307270;28;20240;-56
2022/12/25 00:39:22;;;;;;;22.63;11.40;;;6.40;1.00;;;;;;6303028;28;20240;-55
2022/12/25 00:42:27;;;;;;;20.80;11.83;;;6.60;1.00;;;;;;6300801;28;20713;-56
2022/12/25 00:45:30;;;;;;;20.10;11.17;;;6.40;1.00;;;;;;6307067;28;20463;-55
2022/12/25 00:48:35;;;;;;;21.73;12.03;;;6.40;1.00;;;;;;6304789;28;20244;-55
2022/12/25 00:51:38;;;;;;;23.47;11.13;;;6.50;1.00;;;;;;6306082;28;20236;-55
2022/12/25 00:54:41;;;;;;;25.70;12.77;;;6.30;1.00;;;;;;6305739;28;20240;-56
2022/12/25 00:57:44;;;;;;;23.10;11.23;;;6.40;1.00;;;;;;6302631;28;20602;-56
2022/12/25 01:00:48;;;;;;;22.13;12.00;;;6.40;1.00;;;;;;6286798;28;20311;-56
2022/12/25 01:03:52;;;;;;;21.97;11.80;;;6.40;1.00;;;;;;6301217;28;20239;-55
2022/12/25 01:06:55;;;;;;;17.70;11.43;;;6.30;1.00;;;;;;6287205;28;20240;-56
2022/12/25 01:13:20;;;;;;;19.97;11.77;;;6.10;1.00;;;;;;6306632;28;20377;-56
2022/12/25 01:16:23;;;;;;;25.23;13.20;;;6.20;1.00;;;;;;6285951;28;20677;-55
2022/12/25 01:19:28;;;;;;;21.43;13.00;;;6.40;1.00;;;;;;6280275;28;20244;-55
2022/12/25 01:22:31;;;;;;;20.20;12.57;;;6.30;1.00;;;;;;6281155;28;20245;-55
2022/12/25 01:25:34;;;;;;;24.13;12.27;;;6.10;1.00;;;;;;6281051;28;20607;-56
2022/12/25 01:28:37;;;;;;;23.50;13.20;;;6.10;1.00;;;;;;6272994;28;20639;-56
2022/12/25 01:31:40;;;;;;;23.00;13.10;;;6.00;1.00;;;;;;6270753;28;20240;-54
2022/12/25 01:34:45;;;;;;;18.17;12.90;;;6.00;1.00;;;;;;6292874;28;20248;-56
2022/12/25 01:37:55;;;;;;;24.67;12.90;;;6.00;1.00;;;;;;6286916;28;20615;-55
2022/12/25 01:40:58;;;;;;;29.37;14.33;;;6.10;1.00;;;;;;6305241;28;20590;-56
2022/12/25 01:44:04;;;;;;;22.10;13.57;;;5.90;1.00;;;;;;6305990;28;20232;-56
2022/12/25 01:47:07;;;;;;;30.57;13.67;;;6.00;1.00;;;;;;6286299;28;20328;-55
2022/12/25 01:50:12;;;;;;;20.10;13.33;;;6.20;1.00;;;;;;6279511;28;20777;-56
2022/12/25 01:53:15;;;;;;;19.53;12.43;;;5.80;1.00;;;;;;6281036;28;20275;-55
2022/12/25 01:56:18;;;;;;;23.80;12.80;;;6.00;1.00;;;;;;6281494;28;20241;-56
2022/12/25 01:59:23;;;;;;;19.67;12.50;;;5.80;1.00;;;;;;6280870;28;20252;-55
2022/12/25 02:02:27;;;;;;;23.20;12.70;;;5.90;1.00;;;;;;6292995;28;20315;-55
2022/12/25 02:05:34;;;;;;;20.57;12.40;;;5.80;1.00;;;;;;6296575;28;20228;-55
2022/12/25 02:08:37;;;;;;;16.43;11.83;;;5.80;1.00;;;;;;6304621;28;20325;-56
2022/12/25 02:11:59;;;;;;;17.10;11.70;;;5.70;1.00;;;;;;6294819;28;20254;-56
2022/12/25 02:15:04;;;;;;;29.63;12.83;;;5.90;1.00;;;;;;6284083;28;20464;-56
2022/12/25 02:18:14;;;;;;;15.80;12.07;;;5.70;1.00;;;;;;6284783;28;20244;-55
2022/12/25 02:21:51;;;;;;;19.83;12.10;;;5.60;1.00;;;;;;6295222;28;20236;-56
2022/12/25 02:25:07;;;;;;;20.20;12.23;;;5.50;1.00;;;;;;6292996;28;20837;-56
2022/12/25 02:28:21;;;;;;;15.63;11.97;;;5.50;1.00;;;;;;6292476;28;20252;-56
2022/12/25 02:31:32;;;;;;;15.93;11.13;;;5.50;1.00;;;;;;6289880;28;20244;-55
2022/12/25 02:34:41;;;;;;;15.77;11.93;;;5.70;1.00;;;;;;6306564;28;20236;-55
2022/12/25 02:37:50;;;;;;;18.43;12.47;;;5.50;1.00;;;;;;6305274;27;20272;-56
2022/12/25 02:40:57;;;;;;;13.00;11.37;;;5.60;1.00;;;;;;6301379;28;20232;-55
2022/12/25 03:07:49;;;;;;;21.83;12.83;;;5.30;1.00;;;;;;6289631;28;20237;-56
2022/12/25 03:17:42;;;;;;;17.63;12.77;;;5.10;1.00;;;;;;6264737;28;20241;-55
2022/12/25 03:27:31;;;;;;;14.07;11.20;;;5.00;1.00;;;;;;6283777;28;20240;-57
2022/12/25 04:38:36;;;;;;;11.07;9.97;;;4.40;1.00;;;;;;6294332;27;20704;-56
2022/12/25 04:41:40;;;;;;;11.10;9.27;;;4.10;1.00;;;;;;6298780;28;20233;-54
2022/12/25 04:44:43;;;;;;;13.57;10.00;;;4.20;1.00;;;;;;6304470;28;20221;-56
2022/12/25 04:47:46;;;;;;;11.23;10.10;;;4.10;1.00;;;;;;6305683;28;20244;-55
2022/12/25 04:50:49;;;;;;;12.53;9.97;;;4.30;1.00;;;;;;6305559;28;20390;-55
2022/12/25 04:53:53;;;;;;;12.50;10.40;;;3.90;1.00;;;;;;6295693;28;20225;-55
2022/12/25 04:56:57;;;;;;;11.30;10.03;;;4.30;1.00;;;;;;6275478;28;20244;-54
2022/12/25 05:00:00;;;;;;;12.33;10.43;;;4.10;1.00;;;;;;6279788;28;20247;-55
2022/12/25 05:03:04;;;;;;;14.07;12.27;;;4.00;1.00;;;;;;6287801;28;20242;-56
2022/12/25 05:06:08;;;;;;;12.30;9.70;;;3.90;1.00;;;;;;6286924;28;20836;-54
2022/12/25 05:09:11;;;;;;;12.40;11.17;;;4.00;1.00;;;;;;6287485;28;20259;-56
2022/12/25 05:12:15;;;;;;;17.07;11.77;;;4.10;1.00;;;;;;6280078;28;20225;-54
2022/12/25 05:15:18;;;;;;;14.80;12.27;;;4.00;1.00;;;;;;6278496;28;20229;-56
2022/12/25 05:18:21;;;;;;;12.83;11.17;;;3.80;1.00;;;;;;6286908;28;20236;-55
2022/12/25 05:21:24;;;;;;;16.87;12.83;;;3.80;1.00;;;;;;6280022;28;20687;-53
2022/12/25 05:24:28;;;;;;;13.07;11.00;;;3.70;1.00;;;;;;6297227;28;20234;-56
2022/12/25 05:27:32;;;;;;;15.97;11.07;;;3.80;1.00;;;;;;6294350;28;20236;-54
2022/12/25 05:30:35;;;;;;;18.43;12.03;;;3.80;1.00;;;;;;6297642;28;20259;-55
2022/12/25 05:33:38;;;;;;;19.40;11.83;;;3.70;1.00;;;;;;6293436;28;20240;-54
2022/12/25 05:36:41;;;;;;;18.87;12.30;;;3.80;1.00;;;;;;6289269;28;20236;-56
2022/12/25 05:39:44;;;;;;;17.93;12.47;;;4.00;1.00;;;;;;6299630;27;20243;-56
2022/12/25 05:42:48;;;;;;;19.63;12.40;;;3.80;1.00;;;;;;6310156;28;20233;-56
2022/12/25 05:45:51;;;;;;;12.70;11.43;;;3.50;1.00;;;;;;6295237;28;20232;-54
2022/12/25 05:48:54;;;;;;;16.03;12.47;;;3.90;1.00;;;;;;6284281;28;20236;-56
2022/12/25 05:51:57;;;;;;;15.87;11.80;;;3.70;1.00;;;;;;6284248;28;20654;-56
2022/12/25 05:55:01;;;;;;;13.50;11.40;;;3.60;1.00;;;;;;6285613;28;20746;-56
2022/12/25 05:58:07;;;;;;;15.87;11.93;;;3.80;1.00;;;;;;6299573;28;20240;-55
2022/12/25 06:01:12;;;;;;;17.00;12.80;;;3.50;1.00;;;;;;6289952;28;20229;-56
2022/12/25 06:04:14;;;;;;;14.70;12.77;;;3.40;1.00;;;;;;6301483;28;20237;-55
2022/12/25 06:07:18;;;;;;;15.40;12.30;;;3.60;1.00;;;;;;6301418;28;20312;-55
2022/12/25 06:10:21;;;;;;;18.60;12.73;;;3.60;1.00;;;;;;6284255;28;20238;-55
2022/12/25 06:13:25;;;;;;;14.50;12.00;;;3.40;1.00;;;;;;6284750;28;20230;-56
2022/12/25 06:16:28;;;;;;;16.77;13.13;;;3.60;1.00;;;;;;6286021;28;20221;-55
2022/12/25 06:19:39;;;;;;;19.83;12.77;;;3.80;1.00;;;;;;6284547;28;20803;-56
2022/12/25 06:22:42;;;;;;;19.10;13.40;;;3.50;1.00;;;;;;6283961;28;20229;-56
2022/12/25 06:25:45;;;;;;;22.07;14.73;;;3.50;1.00;;;;;;6283849;28;20324;-55
2022/12/25 06:28:50;;;;;;;21.53;14.53;;;3.40;1.00;;;;;;6283008;28;20301;-55
2022/12/25 06:31:55;;;;;;;23.10;14.27;;;3.70;1.00;;;;;;6299892;28;20608;-54
2022/12/25 06:34:59;;;;;;;22.23;13.93;;;3.50;1.00;;;;;;6296934;28;20394;-55
2022/12/25 06:38:02;;;;;;;27.47;15.93;;;3.40;1.00;;;;;;6308050;28;20251;-56
2022/12/25 06:41:07;;;;;;;26.37;15.77;;;3.50;1.00;;;;;;6296662;28;20233;-56
2022/12/25 06:44:11;;;;;;;22.47;15.63;;;3.70;1.00;;;;;;6306026;28;20426;-53
2022/12/25 06:47:14;;;;;;;26.90;15.67;;;3.40;1.00;;;;;;6307016;28;20336;-53
2022/12/25 06:50:17;;;;;;;20.07;13.83;;;3.50;1.00;;;;;;6296768;28;20249;-56
2022/12/25 06:53:20;;;;;;;29.73;15.70;;;3.50;1.00;;;;;;6302416;28;20255;-54
2022/12/25 06:56:25;;;;;;;56.20;17.57;;;3.60;1.00;;;;;;6304087;28;20255;-55
2022/12/25 06:59:29;;;;;;;25.17;15.57;;;3.30;1.00;;;;;;6290568;28;20233;-55
2022/12/25 07:02:33;;;;;;;45.23;18.97;;;3.40;1.00;;;;;;6283967;28;20652;-55
2022/12/25 07:05:36;;;;;;;17.63;13.60;;;3.40;1.00;;;;;;6286609;28;20236;-56
2022/12/25 07:08:39;;;;;;;39.60;16.13;;;3.30;1.00;;;;;;6288707;27;20478;-55
2022/12/25 07:11:42;;;;;;;22.47;14.83;;;3.20;1.00;;;;;;6304007;28;20481;-54
2022/12/25 07:14:48;;;;;;;23.97;15.57;;;3.30;1.00;;;;;;6306621;28;20248;-55
2022/12/25 07:17:52;;;;;;;33.00;16.83;;;3.50;1.00;;;;;;6296971;28;20294;-56
2022/12/25 07:20:55;;;;;;;25.63;16.20;;;3.60;1.00;;;;;;6289830;28;20274;-55
2022/12/25 07:23:58;;;;;;;18.10;13.93;;;3.60;1.00;;;;;;6298075;28;20249;-55
2022/12/25 07:27:00;;;;;;;25.50;15.20;;;3.40;1.00;;;;;;6285105;28;20705;-55
2022/12/25 07:30:06;;;;;;;18.40;13.73;;;3.40;1.00;;;;;;6307498;28;20796;-56
2022/12/25 07:33:09;;;;;;;19.23;14.70;;;3.50;1.00;;;;;;6297489;28;20645;-55
2022/12/25 07:36:13;;;;;;;25.80;14.27;;;3.40;1.00;;;;;;6291349;28;20242;-55
2022/12/25 07:39:16;;;;;;;21.57;14.17;;;3.60;1.00;;;;;;6298969;28;20253;-55
2022/12/25 07:42:19;;;;;;;33.17;13.80;;;3.90;1.00;;;;;;6282920;28;20237;-55
2022/12/25 07:45:28;;;;;;;16.63;11.67;;;3.60;1.00;;;;;;6283792;28;20382;-55
2022/12/25 07:48:32;;;;;;;17.00;12.57;;;3.60;1.00;;;;;;6294547;28;20239;-56
2022/12/25 07:51:35;;;;;;;18.10;11.80;;;3.90;1.00;;;;;;6278614;28;20245;-56
2022/12/25 07:54:38;;;;;;;20.40;11.17;;;3.60;1.00;;;;;;6281289;28;20793;-55
2022/12/25 07:57:41;;;;;;;18.03;11.33;;;3.70;1.00;;;;;;6282058;28;20267;-54
2022/12/25 08:00:45;;;;;;;15.87;12.53;;;3.80;1.00;;;;;;6289332;28;20239;-56
2022/12/25 08:03:50;;;;;;;21.87;13.60;;;3.60;1.00;;;;;;6271294;28;20305;-56
2022/12/25 08:06:53;;;;;;;21.20;13.33;;;3.80;1.00;;;;;;6289950;28;20316;-55
2022/12/25 08:09:56;;;;;;;19.20;13.13;;;3.60;1.00;;;;;;6291699;28;20237;-56
2022/12/25 08:12:59;;;;;;;18.60;13.40;;;3.50;1.00;;;;;;6293650;28;20240;-56
2022/12/25 08:16:06;;;;;;;23.70;14.07;;;3.80;1.00;;;;;;6292032;28;20240;-56
2022/12/25 08:19:10;;;;;;;16.37;12.13;;;3.80;1.00;;;;;;6293449;28;20410;-54
2022/12/25 08:22:13;;;;;;;20.90;14.00;;;3.80;1.00;;;;;;6304008;28;20240;-56
2022/12/25 08:25:16;;;;;;;39.70;19.40;;;3.80;1.00;;;;;;6294955;28;20308;-54
2022/12/25 08:28:19;;;;;;;28.73;18.13;;;3.90;1.00;;;;;;6282378;28;20252;-55
2022/12/25 08:31:26;;;;;;;23.23;16.13;;;3.70;1.00;;;;;;6290591;28;20533;-55
2022/12/25 08:34:29;;;;;;;25.80;15.67;;;3.80;1.00;;;;;;6287865;28;20245;-55
2022/12/25 08:37:32;;;;;;;23.13;15.43;;;3.90;1.00;;;;;;6284417;28;20728;-55
2022/12/25 08:40:35;;;;;;;35.67;14.50;;;3.90;1.00;;;;;;6297882;28;20236;-53
2022/12/25 08:43:38;;;;;;;16.03;13.87;;;3.90;1.00;;;;;;6294918;28;20233;-54
2022/12/25 08:46:43;;;;;;;66.17;15.33;;;4.10;1.00;;;;;;6296437;28;20243;-54
2022/12/25 08:49:46;;;;;;;20.27;13.30;;;3.90;1.00;;;;;;6278370;28;20241;-55
2022/12/25 08:52:49;;;;;;;34.70;14.57;;;4.00;1.00;;;;;;6287179;28;20244;-54
2022/12/25 08:55:57;;;;;;;47.93;13.47;;;4.00;1.00;;;;;;6285633;28;20459;-56
2022/12/25 08:59:00;;;;;;;35.07;12.50;;;3.90;1.00;;;;;;6290988;28;20763;-54
2022/12/25 09:02:05;;;;;;;21.60;11.47;;;4.00;1.00;;;;;;6305344;28;20367;-55
2022/12/25 09:05:09;;;;;;;60.77;13.60;;;3.90;1.00;;;;;;6296608;28;20236;-54
2022/12/25 09:08:12;;;;;;;11.07;9.93;;;4.10;1.00;;;;;;6294332;27;20244;-55
2022/12/25 09:11:16;;;;;;;12.20;10.00;;;4.00;1.00;;;;;;6297765;28;20255;-56
2022/12/25 09:14:19;;;;;;;16.57;11.23;;;4.10;1.00;;;;;;6291095;28;20596;-56
2022/12/25 09:17:23;;;;;;;27.77;11.93;;;3.90;1.00;;;;;;6305200;28;20593;-55
2022/12/25 09:20:26;;;;;;;27.67;11.23;;;4.00;1.00;;;;;;6303930;28;20236;-56
2022/12/25 09:23:30;;;;;;;24.33;12.43;;;4.10;1.00;;;;;;6305031;28;20611;-56
2022/12/25 09:26:33;;;;;;;12.87;11.50;;;4.20;1.00;;;;;;6292396;28;20565;-56
2022/12/25 09:29:37;;;;;;;18.03;10.83;;;4.40;1.00;;;;;;6292578;28;20509;-56
2022/12/25 09:32:42;;;;;;;25.80;13.00;;;4.40;1.00;;;;;;6288504;28;20296;-56
2022/12/25 09:35:52;;;;;;;20.00;11.77;;;4.30;1.00;;;;;;6278535;28;20244;-56
2022/12/25 09:38:55;;;;;;;16.37;13.53;;;4.30;1.00;;;;;;6282399;28;20361;-54
2022/12/25 09:42:01;;;;;;;20.73;13.60;;;4.30;1.00;;;;;;6304371;28;20228;-55
2022/12/25 09:45:10;;;;;;;40.40;15.20;;;4.30;1.00;;;;;;6304021;28;20232;-55
2022/12/25 09:48:16;;;;;;;29.73;14.30;;;4.30;1.00;;;;;;6289445;28;20428;-55
2022/12/25 09:51:19;;;;;;;31.77;14.80;;;4.50;1.00;;;;;;6282935;28;20736;-56
2022/12/25 09:54:27;;;;;;;19.37;14.17;;;4.20;1.00;;;;;;6302850;28;20743;-54
2022/12/25 09:57:30;;;;;;;22.80;15.33;;;4.40;1.00;;;;;;6299627;28;20236;-56
2022/12/25 10:00:40;;;;;;;28.90;17.53;;;4.50;1.00;;;;;;6284071;28;20251;-56
2022/12/25 10:04:05;;;;;;;29.90;17.20;;;4.30;1.00;;;;;;6275835;28;20233;-55
2022/12/25 10:07:17;;;;;;;43.50;16.30;;;4.40;1.00;;;;;;6292611;28;20237;-55
2022/12/25 10:10:33;;;;;;;46.87;18.10;;;4.50;1.00;;;;;;6294017;28;20236;-56
2022/12/25 10:14:01;;;;;;;21.87;15.43;;;4.70;1.00;;;;;;6294603;28;20226;-55
2022/12/25 10:17:20;;;;;;;35.03;15.57;;;4.30;1.00;;;;;;6296127;28;20233;-55
2022/12/25 10:20:40;;;;;;;56.43;18.00;;;4.50;1.00;;;;;;6291026;28;20229;-55
2022/12/25 10:23:46;;;;;;;26.80;16.20;;;4.40;1.00;;;;;;6306473;28;20229;-55
2022/12/25 10:26:51;;;;;;;33.97;16.47;;;4.20;1.00;;;;;;6309154;28;20240;-56
2022/12/25 10:29:54;;;;;;;23.70;16.00;;;4.20;1.00;;;;;;6308558;28;20247;-55
2022/12/25 10:32:58;;;;;;;45.13;16.63;;;4.60;1.00;;;;;;6294098;28;20316;-56
2022/12/25 10:36:05;;;;;;;40.60;15.63;;;4.40;1.00;;;;;;6308783;28;20547;-54
2022/12/25 10:39:15;;;;;;;25.63;15.77;;;4.40;1.00;;;;;;6307232;28;20237;-55
2022/12/25 10:42:28;;;;;;;32.40;16.23;;;4.40;1.00;;;;;;6303180;28;20236;-55
2022/12/25 10:45:31;;;;;;;40.27;16.63;;;4.30;1.00;;;;;;6295240;28;20933;-54
2022/12/25 10:48:34;;;;;;;24.53;15.53;;;4.50;1.00;;;;;;6307545;28;20271;-56
2022/12/25 10:51:39;;;;;;;20.47;14.50;;;4.50;1.00;;;;;;6304512;28;20250;-55
2022/12/25 10:54:42;;;;;;;28.70;16.90;;;4.70;1.00;;;;;;6303912;28;20228;-54
2022/12/25 10:57:46;;;;;;;27.97;17.50;;;4.60;1.00;;;;;;6297072;28;20323;-56
2022/12/25 11:00:54;;;;;;;28.07;16.27;;;4.90;1.00;;;;;;6290375;28;20743;-55
2022/12/25 11:03:57;;;;;;;24.80;16.97;;;4.80;1.00;;;;;;6305390;28;20256;-55
2022/12/25 11:07:06;;;;;;;24.40;16.87;;;4.90;1.00;;;;;;6307301;27;20676;-55
2022/12/25 11:10:20;;;;;;;25.43;16.53;;;4.80;1.00;;;;;;6284222;28;20238;-55
2022/12/25 11:13:27;;;;;;;29.30;17.17;;;4.90;1.00;;;;;;6300311;28;20720;-54
2022/12/25 11:16:34;;;;;;;31.67;18.23;;;4.70;1.00;;;;;;6299142;28;20374;-55
2022/12/25 11:19:37;;;;;;;29.20;17.10;;;4.70;1.00;;;;;;6290245;28;20327;-53
2022/12/25 11:22:46;;;;;;;29.23;18.87;;;5.00;1.00;;;;;;6303395;28;20237;-55
2022/12/25 11:25:57;;;;;;;30.80;18.47;;;5.10;1.00;;;;;;6296948;28;20386;-56
2022/12/25 11:29:00;;;;;;;26.10;17.83;;;5.30;1.00;;;;;;6284520;28;20726;-56
2022/12/25 11:32:11;;;;;;;24.47;17.77;;;5.20;1.00;;;;;;6296943;28;20240;-55
2022/12/25 11:35:16;;;;;;;26.10;17.70;;;5.30;1.00;;;;;;6288451;28;20685;-55
2022/12/25 11:38:22;;;;;;;26.37;16.47;;;5.40;1.00;;;;;;6279045;28;20229;-54
2022/12/25 11:41:31;;;;;;;27.17;16.93;;;5.30;1.00;;;;;;6277895;28;20390;-56
2022/12/25 11:44:40;;;;;;;26.00;16.70;;;5.10;1.00;;;;;;6284683;28;20240;-56
2022/12/25 11:47:47;;;;;;;32.73;17.80;;;5.00;1.00;;;;;;6301776;28;20236;-54
2022/12/25 11:50:53;;;;;;;25.50;16.97;;;5.30;1.00;;;;;;6307422;28;20229;-56
2022/12/25 11:54:01;;;;;;;30.90;19.27;;;5.20;1.00;;;;;;6288175;28;20243;-55
2022/12/25 11:57:06;;;;;;;26.80;18.07;;;5.10;1.00;;;;;;6293203;28;20248;-56
2022/12/25 12:00:14;;;;;;;26.33;16.90;;;5.00;1.00;;;;;;6298694;28;20733;-56
2022/12/25 12:03:22;;;;;;;24.57;17.43;;;5.50;1.00;;;;;;6291073;28;20238;-55
2022/12/25 12:06:30;;;;;;;23.27;17.27;;;5.10;1.00;;;;;;6299829;28;20237;-56
2022/12/25 12:09:44;;;;;;;23.50;17.43;;;5.30;1.00;;;;;;6299061;28;20255;-56
2022/12/25 12:12:53;;;;;;;25.20;17.70;;;5.50;1.00;;;;;;6294805;28;20315;-56
2022/12/25 12:15:57;;;;;;;21.93;16.40;;;5.40;1.00;;;;;;6299955;28;20231;-55
2022/12/25 12:19:11;;;;;;;22.37;16.73;;;5.50;1.00;;;;;;6302343;28;20323;-55
2022/12/25 12:22:19;;;;;;;19.57;16.23;;;5.60;1.00;;;;;;6290292;28;20241;-56
2022/12/25 12:25:23;;;;;;;21.20;16.97;;;5.60;1.00;;;;;;6301582;28;20237;-55
2022/12/25 12:28:29;;;;;;;19.13;15.93;;;5.50;1.00;;;;;;6278676;28;20469;-55
2022/12/25 12:31:41;;;;;;;25.73;16.77;;;5.80;1.00;;;;;;6297234;28;20358;-54
2022/12/25 12:34:48;;;;;;;21.33;15.90;;;5.70;1.00;;;;;;6305175;28;20611;-56
2022/12/25 12:37:55;;;;;;;18.83;16.40;;;5.50;1.00;;;;;;6306324;28;20244;-55
2022/12/25 12:41:01;;;;;;;22.13;16.03;;;5.70;1.00;;;;;;6305864;28;20720;-55
2022/12/25 12:44:06;;;;;;;18.63;15.30;;;5.90;1.00;;;;;;6305300;28;20236;-55
2022/12/25 12:47:29;;;;;;;18.77;14.67;;;5.90;1.00;;;;;;6296493;28;20400;-55
2022/12/25 12:50:38;;;;;;;17.80;13.63;;;5.50;1.00;;;;;;6300060;28;20244;-55
2022/12/25 12:53:42;;;;;;;15.73;12.50;;;5.70;1.00;;;;;;6269484;28;20225;-56
2022/12/25 12:56:57;;;;;;;14.43;12.93;;;5.90;1.00;;;;;;6297891;28;20237;-57
2022/12/25 13:00:00;;;;;;;15.53;12.70;;;5.70;1.00;;;;;;6302765;28;20741;-55
2022/12/25 13:03:35;;;;;;;17.90;13.63;;;5.60;1.00;;;;;;6292951;28;20237;-55
2022/12/25 13:06:42;;;;;;;15.67;13.27;;;5.70;1.00;;;;;;6283140;28;20418;-55
2022/12/25 13:10:03;;;;;;;14.13;12.53;;;5.60;1.00;;;;;;6290945;27;21303;-55
2022/12/25 13:13:17;;;;;;;12.80;11.57;;;5.80;1.00;;;;;;6300871;28;20512;-55
2022/12/25 13:16:26;;;;;;;14.73;11.17;;;5.80;1.00;;;;;;6306276;28;20240;-56
2022/12/25 13:19:29;;;;;;;12.17;10.93;;;6.10;1.00;;;;;;6274911;28;20330;-50
2022/12/25 13:22:34;;;;;;;11.57;10.47;;;5.90;1.00;;;;;;6291621;28;20236;-56
2022/12/25 13:25:37;;;;;;;14.03;10.43;;;5.90;1.00;;;;;;6285952;28;20229;-56
2022/12/25 13:28:41;;;;;;;11.47;10.00;;;6.10;1.00;;;;;;6297527;28;20225;-56
2022/12/25 13:31:44;;;;;;;10.23;9.27;;;6.00;1.00;;;;;;6287788;28;20254;-56
2022/12/25 13:34:49;;;;;;;9.70;8.80;;;6.10;1.00;;;;;;6293277;28;20676;-56
2022/12/25 13:37:53;;;;;;;10.87;9.77;;;5.90;1.00;;;;;;6275373;28;20238;-55
2022/12/25 13:44:22;;;;;;;12.90;10.20;;;6.00;1.00;;;;;;6278980;28;20229;-56
2022/12/25 13:47:30;;;;;;;11.13;10.13;;;5.90;1.00;;;;;;6276016;28;20240;-55
2022/12/25 13:50:34;;;;;;;12.07;10.87;;;5.70;1.00;;;;;;6277211;28;20236;-55
2022/12/25 13:53:37;;;;;;;12.33;10.90;;;6.10;1.00;;;;;;6297229;28;20228;-55
2022/12/25 13:56:48;;;;;;;11.60;10.50;;;6.10;1.00;;;;;;6305162;28;20232;-55
2022/12/25 13:59:52;;;;;;;12.60;10.83;;;5.80;1.00;;;;;;6302651;28;20713;-56
2022/12/25 14:02:55;;;;;;;12.63;10.50;;;5.80;1.00;;;;;;6294976;28;20243;-55
2022/12/25 14:06:00;;;;;;;11.23;10.23;;;5.90;1.00;;;;;;6297648;28;20319;-56
2022/12/25 14:09:04;;;;;;;10.73;9.73;;;5.90;1.00;;;;;;6300359;28;20236;-56
2022/12/25 14:12:08;;;;;;;11.53;10.43;;;6.00;1.00;;;;;;6297064;28;20264;-56
2022/12/25 14:15:22;;;;;;;14.60;10.27;;;5.80;1.00;;;;;;6295808;28;20291;-56
2022/12/25 14:18:26;;;;;;;12.43;10.30;;;6.00;1.00;;;;;;6285157;28;20314;-58
2022/12/25 14:21:32;;;;;;;12.20;11.03;;;5.80;1.00;;;;;;6292972;28;20483;-57
2022/12/25 14:24:35;;;;;;;16.00;11.47;;;5.90;1.00;;;;;;6283396;28;20252;-55
2022/12/25 14:27:38;;;;;;;15.13;11.90;;;6.10;1.00;;;;;;6300556;28;20229;-59
2022/12/25 14:30:43;;;;;;;15.90;11.37;;;5.70;1.00;;;;;;6307983;28;20240;-56
2022/12/25 14:33:47;;;;;;;14.20;11.60;;;5.60;1.00;;;;;;6304596;28;20716;-56
2022/12/25 14:36:51;;;;;;;13.63;11.83;;;6.10;1.00;;;;;;6308271;28;20236;-55
2022/12/25 14:39:57;;;;;;;16.17;12.07;;;6.00;1.00;;;;;;6307456;28;20434;-55
2022/12/25 14:43:01;;;;;;;12.97;11.20;;;6.10;1.00;;;;;;6297657;28;20237;-55
2022/12/25 14:46:06;;;;;;;12.90;11.37;;;6.00;1.00;;;;;;6296740;28;20245;-54
2022/12/25 14:49:24;;;;;;;12.80;10.47;;;6.20;1.00;;;;;;6301613;28;20348;-55
2022/12/25 14:52:29;;;;;;;17.97;12.50;;;5.70;1.00;;;;;;6298743;28;20242;-56
2022/12/25 14:55:32;;;;;;;12.37;11.23;;;6.00;1.00;;;;;;6305951;28;20233;-55
2022/12/25 14:58:41;;;;;;;14.77;11.37;;;5.80;1.00;;;;;;6293059;28;20251;-57
2022/12/25 15:01:50;;;;;;;11.73;10.33;;;5.90;1.00;;;;;;6289808;28;20232;-55
2022/12/25 15:04:54;;;;;;;14.50;11.73;;;5.80;1.00;;;;;;6298186;28;20230;-56
2022/12/25 15:08:19;;;;;;;13.17;11.00;;;5.90;1.00;;;;;;6293251;27;20308;-56
2022/12/25 15:11:22;;;;;;;14.20;12.00;;;5.90;1.00;;;;;;6298841;28;20240;-54
2022/12/25 15:14:26;;;;;;;18.50;12.30;;;6.00;1.00;;;;;;6291956;28;20267;-56
2022/12/25 15:17:32;;;;;;;17.80;11.80;;;5.80;1.00;;;;;;6291900;28;20248;-55
2022/12/25 15:20:35;;;;;;;18.70;12.93;;;6.00;1.00;;;;;;6281519;28;20396;-55
2022/12/25 15:23:38;;;;;;;16.37;12.37;;;5.90;1.00;;;;;;6287394;28;20224;-54
2022/12/25 15:26:41;;;;;;;16.40;12.80;;;6.10;1.00;;;;;;6304047;28;20239;-59
2022/12/25 15:29:45;;;;;;;12.90;10.90;;;6.00;1.00;;;;;;6299732;28;20234;-55
2022/12/25 15:33:13;;;;;;;17.67;12.53;;;6.20;1.00;;;;;;6285903;28;20241;-55
2022/12/25 15:36:16;;;;;;;14.70;11.70;;;6.20;1.00;;;;;;6302656;28;20729;-55
2022/12/25 15:39:19;;;;;;;20.73;12.47;;;6.00;1.00;;;;;;6304059;28;20241;-55
2022/12/25 15:42:23;;;;;;;19.10;12.23;;;6.20;1.00;;;;;;6302336;28;20233;-55
2022/12/25 15:45:29;;;;;;;13.70;11.33;;;6.20;1.00;;;;;;6304991;28;20260;-55
2022/12/25 15:48:33;;;;;;;20.37;12.13;;;6.30;1.00;;;;;;6295334;28;20714;-55
2022/12/25 15:51:36;;;;;;;16.37;12.37;;;6.20;1.00;;;;;;6289333;28;20236;-54
2022/12/25 15:54:39;;;;;;;17.00;11.70;;;6.40;1.00;;;;;;6296744;28;20240;-55
2022/12/25 15:57:44;;;;;;;16.67;11.73;;;6.30;1.00;;;;;;6295310;28;20228;-56
2022/12/25 16:00:47;;;;;;;15.17;11.77;;;6.50;1.00;;;;;;6306404;28;20728;-55
2022/12/25 16:03:51;;;;;;;16.73;11.50;;;6.40;1.00;;;;;;6304047;28;20326;-56
2022/12/25 16:06:55;;;;;;;14.03;11.43;;;6.60;1.00;;;;;;6288843;28;20257;-56
2022/12/25 16:09:58;;;;;;;14.17;11.53;;;6.50;1.00;;;;;;6295705;28;20853;-55
2022/12/25 16:13:01;;;;;;;21.07;12.03;;;6.40;1.00;;;;;;6301040;28;20224;-55
2022/12/25 16:16:05;;;;;;;11.47;10.27;;;6.80;1.00;;;;;;6296736;28;20744;-55
2022/12/25 16:19:10;;;;;;;15.03;11.63;;;6.50;1.00;;;;;;6283817;28;20245;-55
2022/12/25 16:22:14;;;;;;;13.70;11.73;;;6.80;1.00;;;;;;6288552;28;20236;-55
2022/12/25 16:25:19;;;;;;;13.87;11.30;;;6.70;1.00;;;;;;6298209;28;20717;-56
2022/12/25 16:28:22;;;;;;;17.97;12.00;;;6.60;1.00;;;;;;6294972;28;20248;-55
2022/12/25 16:31:25;;;;;;;13.10;10.20;;;6.70;1.00;;;;;;6295225;28;20237;-56
2022/12/25 16:34:29;;;;;;;17.43;11.50;;;6.70;1.00;;;;;;6294589;28;20293;-55
2022/12/25 16:37:32;;;;;;;20.70;10.80;;;6.70;1.00;;;;;;6290161;27;20249;-56
2022/12/25 16:40:35;;;;;;;16.27;12.00;;;6.70;1.00;;;;;;6286410;28;20233;-54
2022/12/25 16:43:38;;;;;;;14.33;11.00;;;6.80;1.00;;;;;;6293965;28;20566;-54
2022/12/25 16:46:41;;;;;;;20.33;12.53;;;6.70;1.00;;;;;;6292924;28;20232;-56
2022/12/25 16:49:46;;;;;;;22.00;11.90;;;6.90;1.00;;;;;;6281161;28;20240;-54
2022/12/25 16:52:49;;;;;;;17.37;12.37;;;6.80;1.00;;;;;;6290256;28;20236;-55
2022/12/25 16:55:52;;;;;;;19.27;12.43;;;6.80;1.00;;;;;;6287272;28;20240;-56
2022/12/25 16:58:56;;;;;;;20.33;12.00;;;6.80;1.00;;;;;;6300517;28;20253;-55
2022/12/25 17:01:59;;;;;;;14.80;12.30;;;6.90;1.00;;;;;;6281790;28;20233;-54
2022/12/25 17:05:04;;;;;;;15.33;11.77;;;6.80;1.00;;;;;;6283530;28;20502;-55
2022/12/25 17:08:07;;;;;;;23.87;12.00;;;6.90;1.00;;;;;;6287957;28;20241;-55
2022/12/25 17:11:11;;;;;;;14.83;11.83;;;7.00;1.00;;;;;;6284558;28;20236;-55
2022/12/25 17:14:14;;;;;;;16.73;12.57;;;7.00;1.00;;;;;;6286651;28;20627;-54
2022/12/25 17:17:17;;;;;;;19.03;11.03;;;7.20;1.00;;;;;;6305189;28;20241;-55
2022/12/25 17:20:21;;;;;;;13.43;11.93;;;7.00;1.00;;;;;;6303835;28;20255;-56
2022/12/25 17:23:24;;;;;;;14.13;12.03;;;7.20;1.00;;;;;;6300660;28;20241;-54
2022/12/25 17:26:27;;;;;;;17.73;12.43;;;7.10;1.00;;;;;;6279732;28;20660;-56
2022/12/25 17:29:31;;;;;;;14.70;11.90;;;7.00;1.00;;;;;;6282394;28;20243;-54
2022/12/25 17:32:34;;;;;;;18.90;13.30;;;7.00;1.00;;;;;;6281801;28;20244;-55
2022/12/25 17:35:39;;;;;;;15.10;12.43;;;7.00;1.00;;;;;;6292175;28;20677;-56
2022/12/25 17:38:42;;;;;;;16.13;12.13;;;7.00;1.00;;;;;;6302648;28;20235;-56
2022/12/25 17:41:45;;;;;;;14.47;12.13;;;7.30;1.00;;;;;;6284765;28;20224;-56
2022/12/25 17:44:47;;;;;;;18.60;12.93;;;7.10;1.00;;;;;;6293790;28;20232;-56
2022/12/25 17:47:53;;;;;;;19.80;12.97;;;7.20;1.00;;;;;;6304577;28;20240;-55
2022/12/25 17:51:02;;;;;;;17.37;12.67;;;7.10;1.00;;;;;;6299434;28;20248;-55
2022/12/25 17:54:05;;;;;;;17.83;13.20;;;7.20;1.00;;;;;;6291216;28;20243;-56
2022/12/25 17:57:08;;;;;;;24.47;14.47;;;7.30;1.00;;;;;;6299291;28;20245;-56
2022/12/25 18:00:12;;;;;;;17.93;12.60;;;7.10;1.00;;;;;;6292409;28;20239;-54